Time;durP1;ratioP1;P1;durP2;ratioP2;P2;SDS_P1;SDS_P2;PMS_P1;PMS_P2;Temp;Humidity;BMP_temperature;BMP_pressure;BME280_temperature;BME280_humidity;BME280_pressure;Samples;Min_cycle;Max_cycle;Signal;HPM_P1;HPM_P2
2022/08/18 00:00:37;;;;;;;73.60;62.60;;;17.90;99.90;;;;;;2615890;54;20259;-76
2022/08/18 00:03:19;;;;;;;78.30;63.97;;;17.80;99.90;;;;;;2616037;39;20747;-76
2022/08/18 00:05:45;;;;;;;73.10;61.50;;;17.80;99.90;;;;;;2616392;39;20583;-76
2022/08/18 00:11:38;;;;;;;79.67;63.93;;;17.70;99.90;;;;;;2616239;54;20405;-77
2022/08/18 00:17:26;;;;;;;81.60;63.00;;;17.80;99.90;;;;;;2615804;54;20418;-77
2022/08/18 00:23:14;;;;;;;76.03;61.13;;;17.80;99.90;;;;;;2616218;54;20272;-81
2022/08/18 00:29:02;;;;;;;73.83;64.13;;;17.70;99.90;;;;;;2615854;54;20137;-81
2022/08/18 00:34:52;;;;;;;77.50;63.53;;;17.60;99.90;;;;;;2616134;54;20419;-81
2022/08/18 00:40:45;;;;;;;86.37;66.57;;;17.60;99.90;;;;;;2616807;54;20392;-81
2022/08/18 00:46:36;;;;;;;76.40;62.10;;;17.50;99.90;;;;;;2616766;54;20398;-81
2022/08/18 00:52:25;;;;;;;83.73;68.40;;;17.50;99.90;;;;;;2616714;54;20405;-81
2022/08/18 01:08:10;;;;;;;89.67;69.57;;;17.60;99.90;;;;;;2614672;54;20384;-77
2022/08/18 01:13:59;;;;;;;90.80;73.43;;;17.50;99.90;;;;;;2614983;54;20621;-78
2022/08/18 01:31:58;;;;;;;101.20;73.50;;;17.30;99.90;;;;;;2614898;54;20423;-78
2022/08/18 01:35:01;;;;;;;107.00;78.87;;;17.20;99.90;;;;;;2615294;54;20407;-78
2022/08/18 01:41:32;;;;;;;93.20;75.67;;;17.20;99.90;;;;;;2616609;54;21011;-78
2022/08/18 01:47:20;;;;;;;104.97;77.40;;;17.20;99.90;;;;;;2616687;39;20766;-78
2022/08/18 01:53:10;;;;;;;105.37;75.53;;;17.10;99.90;;;;;;2616163;54;20385;-78
2022/08/18 01:58:58;;;;;;;109.77;79.13;;;17.30;99.90;;;;;;2615992;54;20506;-78
2022/08/18 02:08:11;;;;;;;124.80;76.03;;;17.10;99.90;;;;;;2615822;54;20390;-78
2022/08/18 02:13:58;;;;;;;110.83;78.80;;;17.00;99.90;;;;;;2616316;54;20405;-79
2022/08/18 02:19:47;;;;;;;111.80;80.20;;;16.90;99.90;;;;;;2616374;54;20134;-84
2022/08/18 02:25:35;;;;;;;133.00;84.37;;;16.80;99.90;;;;;;2616672;39;20759;-84
2022/08/18 02:31:24;;;;;;;129.20;85.20;;;16.70;99.90;;;;;;2616580;54;20393;-83
2022/08/18 02:37:12;;;;;;;130.70;86.80;;;16.80;99.90;;;;;;2616121;54;20458;-77
2022/08/18 02:43:08;;;;;;;143.37;94.10;;;16.80;99.90;;;;;;2616398;54;20332;-77
2022/08/18 02:48:56;;;;;;;138.73;86.90;;;16.80;99.90;;;;;;2616042;54;20415;-77
2022/08/18 02:54:44;;;;;;;157.43;89.23;;;16.80;99.90;;;;;;2616187;39;20826;-81
2022/08/18 03:00:35;;;;;;;166.93;97.03;;;17.00;99.90;;;;;;2616535;54;20404;-81
2022/08/18 03:03:36;;;;;;;150.93;94.30;;;17.00;99.90;;;;;;2616293;54;20403;-81
2022/08/18 03:06:03;;;;;;;161.33;89.27;;;17.10;99.90;;;;;;2616912;54;20383;-81
2022/08/18 03:11:52;;;;;;;169.50;88.43;;;17.50;99.90;;;;;;2616730;46;20525;-83
2022/08/18 03:17:41;;;;;;;177.03;95.90;;;17.80;99.90;;;;;;2616214;54;20391;-81
2022/08/18 03:23:29;;;;;;;200.47;95.57;;;17.80;99.90;;;;;;2616867;54;20409;-80
2022/08/18 03:29:17;;;;;;;203.80;101.03;;;17.80;99.90;;;;;;2618089;31;20570;-80
2022/08/18 03:35:08;;;;;;;199.17;101.70;;;17.80;99.90;;;;;;2617614;39;20526;-81
2022/08/18 03:40:55;;;;;;;215.27;102.57;;;17.90;99.90;;;;;;2617576;54;20379;-79
2022/08/18 03:46:44;;;;;;;208.03;100.07;;;17.90;99.90;;;;;;2616640;54;20168;-80
2022/08/18 03:52:34;;;;;;;198.50;96.20;;;17.90;99.90;;;;;;2616865;54;20392;-84
2022/08/18 03:58:23;;;;;;;195.60;97.73;;;18.00;99.90;;;;;;2616868;39;20768;-85
2022/08/18 04:08:07;;;;;;;196.00;97.00;;;18.00;99.90;;;;;;2616051;54;20421;-83
2022/08/18 04:13:57;;;;;;;186.93;95.53;;;17.90;99.90;;;;;;2616290;54;20440;-79
2022/08/18 04:19:45;;;;;;;189.70;97.73;;;17.90;99.90;;;;;;2616931;54;20424;-76
2022/08/18 04:25:33;;;;;;;187.90;89.40;;;18.00;99.90;;;;;;2616892;54;20969;-76
2022/08/18 04:31:23;;;;;;;179.40;88.33;;;18.00;99.90;;;;;;2616848;54;20120;-76
2022/08/18 04:37:14;;;;;;;160.87;78.23;;;18.00;99.90;;;;;;2616508;54;20396;-75
2022/08/18 04:43:02;;;;;;;134.33;72.33;;;18.10;99.90;;;;;;2616595;54;20379;-76
2022/08/18 04:48:51;;;;;;;148.00;71.57;;;18.10;99.90;;;;;;2616622;54;20419;-77
2022/08/18 04:54:40;;;;;;;153.00;71.97;;;18.20;99.90;;;;;;2617049;39;20478;-77
2022/08/18 05:00:28;;;;;;;125.93;65.27;;;18.10;99.90;;;;;;2616577;54;20941;-78
2022/08/18 05:03:35;;;;;;;155.83;78.10;;;18.20;99.90;;;;;;2616711;54;20422;-77
2022/08/18 05:06:03;;;;;;;128.40;67.53;;;18.20;99.90;;;;;;2616278;54;20150;-77
2022/08/18 05:11:51;;;;;;;120.40;67.83;;;18.20;99.90;;;;;;2617124;54;20923;-76
2022/08/18 05:17:39;;;;;;;110.50;62.37;;;18.20;99.90;;;;;;2616227;54;20390;-76
2022/08/18 05:23:30;;;;;;;102.53;62.30;;;18.40;99.90;;;;;;2616380;54;20226;-77
2022/08/18 05:29:20;;;;;;;97.60;62.20;;;18.50;99.90;;;;;;2616881;39;20782;-84
2022/08/18 05:35:15;;;;;;;112.80;61.73;;;18.60;99.90;;;;;;2616799;54;20385;-85
2022/08/18 05:47:33;;;;;;;96.97;58.53;;;18.60;99.90;;;;;;2616805;46;20453;-85
2022/08/18 05:56:45;;;;;;;95.73;59.47;;;18.70;99.90;;;;;;2616841;54;20375;-84
2022/08/18 05:59:36;;;;;;;83.10;57.63;;;18.80;99.90;;;;;;2616297;54;20416;-85
2022/08/18 06:21:46;;;;;;;81.60;53.10;;;19.20;99.90;;;;;;2616281;54;20371;-84
2022/08/18 06:34:25;;;;;;;88.10;57.90;;;19.50;99.90;;;;;;2616302;54;20411;-83
2022/08/18 06:40:13;;;;;;;95.80;58.30;;;19.20;99.90;;;;;;2616534;54;20414;-84
2022/08/18 06:46:07;;;;;;;87.83;53.50;;;19.00;99.90;;;;;;2616228;54;20235;-85
2022/08/18 06:51:55;;;;;;;98.30;57.27;;;18.90;99.90;;;;;;2616570;54;20943;-81
2022/08/18 07:02:17;;;;;;;103.43;58.87;;;18.80;99.90;;;;;;2614792;54;20394;-84
2022/08/18 07:11:29;;;;;;;105.63;60.13;;;18.80;99.90;;;;;;2614588;54;20427;-83
2022/08/18 07:17:26;;;;;;;86.30;55.60;;;18.80;99.90;;;;;;2614655;54;20385;-84
2022/08/18 07:26:59;;;;;;;97.83;59.47;;;18.90;99.90;;;;;;2614862;54;20403;-85
2022/08/18 07:32:54;;;;;;;95.90;58.37;;;19.00;99.90;;;;;;2614835;54;20377;-85
2022/08/18 07:35:58;;;;;;;101.07;60.17;;;19.00;99.90;;;;;;2614916;47;20411;-85
2022/08/18 08:04:17;;;;;;;79.13;51.10;;;19.90;99.90;;;;;;2616237;54;20412;-81
2022/08/18 08:16:47;;;;;;;75.90;51.23;;;20.10;99.90;;;;;;2615875;54;20378;-81
2022/08/18 08:22:44;;;;;;;74.10;49.70;;;19.80;99.90;;;;;;2616116;54;20410;-81
2022/08/18 08:35:23;;;;;;;60.13;47.40;;;20.40;99.90;;;;;;2616110;54;20390;-81
2022/08/18 08:47:43;;;;;;;57.20;43.17;;;20.90;99.90;;;;;;2614427;54;20375;-80
2022/08/18 09:00:18;;;;;;;56.37;46.67;;;21.50;99.90;;;;;;2614454;54;20929;-81
2022/08/18 09:06:56;;;;;;;67.50;47.93;;;21.80;99.90;;;;;;2616819;39;20525;-79
2022/08/18 09:25:36;;;;;;;48.77;41.83;;;21.60;99.90;;;;;;2614816;54;20398;-77
2022/08/18 09:31:26;;;;;;;54.10;48.23;;;21.40;99.90;;;;;;2614844;54;20141;-79
2022/08/18 09:37:22;;;;;;;55.17;47.83;;;21.60;99.90;;;;;;2615186;39;20845;-78
2022/08/18 09:49:48;;;;;;;64.43;50.60;;;21.70;99.90;;;;;;2615008;54;20454;-77
2022/08/18 09:55:41;;;;;;;54.50;47.10;;;21.70;99.90;;;;;;2614977;54;20409;-78
2022/08/18 10:01:35;;;;;;;49.10;43.90;;;22.30;99.90;;;;;;2615005;54;20413;-76
2022/08/18 10:11:26;;;;;;;48.53;43.40;;;22.10;99.90;;;;;;2615391;39;20827;-78
2022/08/18 10:17:25;;;;;;;47.23;41.60;;;21.80;99.90;;;;;;2616609;54;20426;-83
2022/08/18 10:26:37;;;;;;;48.27;43.13;;;22.30;99.90;;;;;;2624677;54;20395;-84
2022/08/18 10:32:39;;;;;;;47.97;43.13;;;22.60;99.90;;;;;;2617069;54;20383;-85
2022/08/18 10:38:48;;;;;;;50.93;44.10;;;22.20;99.90;;;;;;2617183;54;20396;-84
2022/08/18 10:44:42;;;;;;;52.23;46.90;;;22.10;99.90;;;;;;2616801;54;21014;-85
2022/08/18 10:57:20;;;;;;;53.83;48.10;;;22.40;99.90;;;;;;2616536;54;20391;-85
2022/08/18 11:06:55;;;;;;;49.97;44.87;;;22.40;99.90;;;;;;2616615;54;20431;-86
2022/08/18 11:09:28;;;;;;;52.30;46.23;;;22.20;99.90;;;;;;2616029;47;20427;-85
2022/08/18 11:22:01;;;;;;;40.20;36.27;;;22.20;99.90;;;;;;2615077;54;20440;-84
2022/08/18 11:27:48;;;;;;;33.27;30.07;;;22.20;99.90;;;;;;2615164;54;20380;-85
2022/08/18 11:33:40;;;;;;;33.33;30.13;;;22.40;99.90;;;;;;2615276;54;20139;-85
2022/08/18 11:39:29;;;;;;;32.37;28.93;;;22.50;99.90;;;;;;2615316;54;20953;-85
2022/08/18 11:45:20;;;;;;;22.03;19.97;;;22.80;99.90;;;;;;2615194;54;20407;-86
2022/08/18 11:51:16;;;;;;;26.17;23.77;;;22.40;99.90;;;;;;2614972;54;20375;-85
2022/08/18 11:57:41;;;;;;;25.40;23.03;;;22.60;99.90;;;;;;2616373;54;20750;-85
2022/08/18 12:10:22;;;;;;;21.60;19.70;;;22.70;99.90;;;;;;2614965;54;20434;-84
2022/08/18 12:22:44;;;;;;;21.50;19.70;;;23.10;99.90;;;;;;2614932;54;20495;-86
2022/08/18 12:28:32;;;;;;;21.00;19.17;;;22.90;99.90;;;;;;2615071;39;20723;-86
2022/08/18 12:34:24;;;;;;;20.60;18.90;;;23.20;99.90;;;;;;2616211;39;20854;-84
2022/08/18 12:40:12;;;;;;;20.97;19.37;;;23.80;99.90;;;;;;2615824;54;20367;-86
2022/08/18 12:45:59;;;;;;;21.13;19.30;;;24.10;99.90;;;;;;2615813;54;20156;-87
2022/08/18 12:51:47;;;;;;;22.87;21.17;;;24.10;99.90;;;;;;2616689;39;20497;-86
2022/08/18 12:57:35;;;;;;;20.80;19.17;;;24.40;99.90;;;;;;2617006;54;20394;-86
2022/08/18 13:03:23;;;;;;;23.53;21.83;;;24.10;99.90;;;;;;2617473;54;20159;-78
2022/08/18 13:09:10;;;;;;;23.67;21.90;;;23.70;99.90;;;;;;2616807;54;20406;-77
2022/08/18 13:14:58;;;;;;;21.67;20.00;;;24.80;99.90;;;;;;2617142;54;20138;-77
2022/08/18 13:20:46;;;;;;;19.50;18.00;;;25.20;99.90;;;;;;2616799;54;20654;-77
2022/08/18 13:26:37;;;;;;;20.73;19.23;;;26.10;94.30;;;;;;2617019;54;20494;-77
2022/08/18 13:32:26;;;;;;;22.20;20.50;;;25.20;90.30;;;;;;2617549;39;20783;-77
2022/08/18 13:38:18;;;;;;;20.67;18.97;;;25.60;91.40;;;;;;2616716;54;20437;-78
2022/08/18 13:44:06;;;;;;;20.00;18.50;;;25.10;57.30;;;;;;2617373;39;20783;-77
2022/08/18 13:49:54;;;;;;;18.30;17.10;;;27.80;62.70;;;;;;2616818;54;20132;-81
2022/08/18 13:55:42;;;;;;;17.77;16.67;;;28.30;45.40;;;;;;2616767;54;20384;-78
2022/08/18 14:01:30;;;;;;;17.13;15.83;;;28.30;39.10;;;;;;2617362;39;20538;-78
2022/08/18 14:11:30;;;;;;;16.90;15.70;;;28.00;31.40;;;;;;2616283;54;20934;-76
2022/08/18 14:17:20;;;;;;;17.40;15.77;;;28.40;37.50;;;;;;2616525;54;20405;-77
2022/08/18 14:29:15;;;;;;;14.37;13.40;;;27.60;32.90;;;;;;2616880;54;20410;-78
2022/08/18 14:35:05;;;;;;;15.37;14.27;;;27.10;28.70;;;;;;2616438;47;20380;-77
2022/08/18 14:40:53;;;;;;;14.13;13.00;;;27.00;31.60;;;;;;2616743;46;20426;-78
2022/08/18 14:46:46;;;;;;;15.00;14.10;;;26.70;27.00;;;;;;2616821;54;20125;-78
2022/08/18 14:52:34;;;;;;;13.07;11.90;;;29.40;25.30;;;;;;2616881;39;20734;-78
2022/08/18 14:58:27;;;;;;;13.20;12.20;;;30.10;18.00;;;;;;2616637;54;20121;-78
2022/08/18 15:04:15;;;;;;;12.50;11.70;;;29.20;19.80;;;;;;2616466;54;20389;-78
2022/08/18 15:06:57;;;;;;;12.03;10.30;;;30.10;15.60;;;;;;2615880;54;20401;-77
2022/08/18 15:09:24;;;;;;;11.27;10.53;;;29.70;15.60;;;;;;2615833;54;20453;-78
2022/08/18 15:15:13;;;;;;;11.90;10.87;;;30.30;16.20;;;;;;2616330;54;20419;-78
2022/08/18 15:27:08;;;;;;;12.50;11.60;;;29.90;12.30;;;;;;2616102;54;20917;-76
2022/08/18 15:32:57;;;;;;;11.97;11.00;;;30.30;11.50;;;;;;2616860;54;20241;-77
2022/08/18 15:38:49;;;;;;;11.83;11.13;;;31.20;11.10;;;;;;2616350;54;20946;-79
2022/08/18 15:44:37;;;;;;;12.77;11.97;;;28.80;13.80;;;;;;2616686;54;20381;-77
2022/08/18 15:50:24;;;;;;;12.30;11.40;;;29.10;12.90;;;;;;2616363;54;20396;-82
2022/08/18 15:56:18;;;;;;;11.13;10.40;;;28.40;13.80;;;;;;2616199;54;20139;-76
2022/08/18 16:02:08;;;;;;;10.43;9.73;;;30.50;10.90;;;;;;2616434;54;20409;-76
2022/08/18 16:11:31;;;;;;;12.60;11.47;;;29.50;13.30;;;;;;2616438;54;20435;-77
2022/08/18 16:17:20;;;;;;;9.90;9.20;;;28.80;12.70;;;;;;2617075;54;20434;-77
2022/08/18 16:23:10;;;;;;;10.60;9.80;;;30.00;11.20;;;;;;2617434;39;20780;-77
2022/08/18 16:29:01;;;;;;;10.50;9.53;;;27.50;15.60;;;;;;2617187;54;20378;-79
2022/08/18 16:34:51;;;;;;;11.67;10.97;;;27.50;15.40;;;;;;2617190;39;20831;-79
2022/08/18 16:40:40;;;;;;;11.43;10.73;;;27.00;19.00;;;;;;2617173;54;20408;-79
2022/08/18 16:46:27;;;;;;;12.47;11.57;;;26.60;20.10;;;;;;2616641;54;20373;-79
2022/08/18 16:52:17;;;;;;;10.63;10.03;;;26.30;21.80;;;;;;2616817;54;20236;-79
2022/08/18 17:04:13;;;;;;;11.07;10.47;;;28.80;17.80;;;;;;2617048;54;20441;-78
2022/08/18 17:07:01;;;;;;;10.30;9.50;;;28.30;16.00;;;;;;2615831;54;20404;-78
2022/08/18 17:09:27;;;;;;;11.30;10.40;;;27.10;17.80;;;;;;2616035;54;20398;-79
2022/08/18 17:15:15;;;;;;;10.40;9.67;;;26.30;21.40;;;;;;2616774;54;20363;-79
2022/08/18 17:21:06;;;;;;;10.83;10.00;;;26.20;21.40;;;;;;2616585;54;20146;-77
2022/08/18 17:27:05;;;;;;;9.80;9.00;;;26.10;22.90;;;;;;2616429;54;20459;-78
2022/08/18 17:39:14;;;;;;;10.47;9.57;;;25.80;24.00;;;;;;2616491;54;20431;-79
2022/08/18 17:45:09;;;;;;;10.10;9.47;;;25.60;25.60;;;;;;2616800;54;20396;-78
2022/08/18 18:03:35;;;;;;;9.90;9.20;;;25.20;29.10;;;;;;2617067;39;20450;-78
2022/08/18 18:22:52;;;;;;;9.33;8.63;;;24.70;33.60;;;;;;2614975;54;20421;-79
2022/08/18 18:28:39;;;;;;;9.03;8.27;;;24.50;38.50;;;;;;2614717;54;20141;-78
2022/08/18 18:34:31;;;;;;;8.70;8.20;;;24.40;41.70;;;;;;2614842;54;20122;-79
2022/08/18 18:53:34;;;;;;;8.67;7.93;;;23.70;55.60;;;;;;2616106;54;20375;-78
2022/08/18 19:05:53;;;;;;;9.53;8.70;;;23.30;62.20;;;;;;2615946;54;20411;-78
2022/08/18 19:12:02;;;;;;;11.00;8.70;;;23.10;72.20;;;;;;2616099;54;20403;-81
2022/08/18 19:28:26;;;;;;;9.70;8.70;;;22.50;93.60;;;;;;2614409;54;21008;-79
2022/08/18 19:30:55;;;;;;;8.20;7.70;;;22.40;96.50;;;;;;2614601;54;20423;-79
2022/08/18 19:47:38;;;;;;;10.50;9.50;;;21.80;99.90;;;;;;2613900;54;20368;-78
2022/08/18 20:13:37;;;;;;;9.07;8.37;;;21.20;99.90;;;;;;2615587;39;20874;-78
2022/08/18 20:39:33;;;;;;;10.60;9.53;;;20.40;99.90;;;;;;2614920;54;20402;-80
2022/08/18 20:45:28;;;;;;;12.30;11.10;;;20.40;99.90;;;;;;2616013;54;20504;-79
2022/08/18 20:57:35;;;;;;;13.03;11.83;;;20.20;99.90;;;;;;2616249;54;20426;-80
2022/08/18 21:06:57;;;;;;;11.80;10.90;;;19.90;99.90;;;;;;2616767;54;20427;-79
2022/08/18 21:09:23;;;;;;;11.57;10.47;;;19.90;99.90;;;;;;2616944;54;20437;-78
2022/08/18 21:15:11;;;;;;;10.93;9.87;;;19.90;99.90;;;;;;2616477;54;20179;-78
2022/08/18 21:21:00;;;;;;;14.97;11.47;;;19.80;99.90;;;;;;2616623;54;20142;-78
2022/08/18 21:26:48;;;;;;;12.03;11.03;;;19.60;99.90;;;;;;2616640;54;20407;-78
2022/08/18 21:32:36;;;;;;;12.60;11.30;;;19.50;99.90;;;;;;2616822;54;20242;-78
2022/08/18 21:38:27;;;;;;;21.63;11.50;;;19.40;99.90;;;;;;2616681;39;20914;-79
2022/08/18 21:57:18;;;;;;;12.80;11.80;;;19.10;99.90;;;;;;2616296;54;20358;-78
2022/08/18 22:03:23;;;;;;;13.30;12.17;;;19.10;99.90;;;;;;2616351;54;20389;-78
2022/08/18 22:18:41;;;;;;;13.27;12.17;;;18.80;99.90;;;;;;2617176;54;20459;-81
2022/08/18 22:31:15;;;;;;;15.23;14.00;;;18.70;99.90;;;;;;2615480;54;20440;-80
2022/08/18 22:43:27;;;;;;;13.27;12.20;;;18.50;99.90;;;;;;2615755;54;20413;-81
2022/08/18 22:49:16;;;;;;;13.77;12.47;;;18.30;99.90;;;;;;2615570;54;20381;-82
2022/08/18 22:55:06;;;;;;;14.50;13.30;;;18.20;99.90;;;;;;2615887;54;20399;-81
2022/08/18 23:00:55;;;;;;;13.40;12.07;;;18.20;99.90;;;;;;2616011;54;20496;-82
2022/08/18 23:06:50;;;;;;;14.80;13.00;;;18.10;99.90;;;;;;2617068;54;20370;-81
2022/08/18 23:16:00;;;;;;;15.07;13.60;;;18.00;99.90;;;;;;2616921;54;20932;-80
2022/08/18 23:21:48;;;;;;;15.73;14.30;;;18.00;99.90;;;;;;2616698;54;20204;-81
2022/08/18 23:27:36;;;;;;;14.50;13.20;;;18.00;99.90;;;;;;2618300;39;20722;-81
2022/08/18 23:33:26;;;;;;;15.83;14.40;;;17.90;99.90;;;;;;2617591;54;20376;-81
2022/08/18 23:39:14;;;;;;;15.70;14.23;;;17.90;99.90;;;;;;2617163;46;20414;-81
2022/08/18 23:45:03;;;;;;;14.77;13.57;;;17.80;99.90;;;;;;2617247;54;20125;-80
2022/08/18 23:50:51;;;;;;;15.70;14.47;;;17.80;99.90;;;;;;2617036;54;20421;-80
2022/08/18 23:56:40;;;;;;;16.80;14.73;;;17.60;99.90;;;;;;2616327;54;20750;-77
